Meteo Giornale » Osservazioni meteo Stati Uniti (USA) » Pasco Tri-Cities
ore: 13:53 - Osservazioni Meteo Pasco Tri-Cities
Lat. 46° 16' N Lon. 119° 7' W Alt. 124 metri s.l.m.
28 °C
Sereno
Temp. 24 Ore
7 °C
28 °C
Nord/NOvest
16.7 Km/h
Dew point 8 °C
Umidità 28 %
Visibilità 10 Km
Il sole sorge alle ore 06:16
Il sole tramonta alle ore 19:37
| Data e Ora | Cielo e Fenomeni | T °C | DP °C | Um. % | Pres. hPa | Vis. km | Vento km/h | |
|---|---|---|---|---|---|---|---|---|
| Oggi h: 13:53 | Sereno | 28 | 8 | 28 | 1010 | 10 | N/NO 16.7 | |
| Oggi h: 12:53 | Sereno | 26 | 7 | 29 | 1011 | 10 | N 5.5 | |
| Oggi h: 11:53 | Sereno | 23 | 7 | 35 | 1013 | 10 | N 5.5 | |
| Oggi h: 10:53 | Sereno | 22 | 7 | 37 | 1014 | 10 | N 16.7 | |
| Oggi h: 09:53 | Sereno | 19 | 5 | 39 | 1014 | 10 | N 13 | |
| Oggi h: 08:53 | Sereno | 15 | 6 | 54 | 1015 | 10 | N/NO 7.4 | |
| Oggi h: 07:53 | Sereno | 12 | 6 | 66 | 1015 | 10 | N 5.5 | |
| Oggi h: 06:53 | Sereno | 8 | 6 | 87 | 1015 | 10 | N 0 | |
| Oggi h: 05:53 | Sereno | 7 | 6 | 93 | 1014 | 10 | N/NO 7.4 | |
| Oggi h: 04:53 | Sereno | 8 | 7 | 93 | 1014 | 10 | N 0 | |
| Oggi h: 03:53 | Sereno | 8 | 7 | 93 | 1014 | 10 | N 0 | |
| Oggi h: 02:53 | Sereno | 11 | 7 | 76 | 1014 | 10 | N 0 | |
| Oggi h: 01:53 | Sereno | 9 | 8 | 93 | 1015 | 10 | N 7.4 | |
| Oggi h: 00:53 | Sereno | 11 | 9 | 87 | 1015 | 10 | NO 7.4 | |
| Ieri h: 23:53 | Sereno | 13 | 9 | 76 | 1015 | 10 | N 0 | |
| Ieri h: 22:53 | Sereno | 13 | 9 | 76 | 1015 | 10 | N 9.3 | |
| Ieri h: 21:53 | Sereno | 15 | 10 | 72 | 1015 | 10 | N 0 | |
| Ieri h: 20:53 | Sereno | 16 | 8 | 58 | 1014 | 10 | N 0 | |
| Ieri h: 19:53 | Sereno | 21 | 6 | 37 | 1014 | 10 | NE 9.3 | |
| Ieri h: 18:53 | Sereno | 24 | 3 | 25 | 1014 | 10 | E/NE 9.3 | |
| Ieri h: 17:53 | Sereno | 26 | 4 | 24 | 1014 | 10 | E 11.1 | |
| Ieri h: 16:53 | Sereno | 26 | 3 | 22 | 1014 | 10 | N 0 | |
| Ieri h: 15:53 | Sereno | 26 | 3 | 22 | 1015 | 10 | N 0 | |
| Ieri h: 14:53 | Sereno | 25 | 6 | 29 | 1016 | 10 | N/NO 9.3 | |



